Time;durP1;ratioP1;P1;durP2;ratioP2;P2;SDS_P1;SDS_P2;PMS_P1;PMS_P2;Temp;Humidity;BMP_temperature;BMP_pressure;BME280_temperature;BME280_humidity;BME280_pressure;Samples;Min_cycle;Max_cycle;Signal;HPM_P1;HPM_P2
2021/10/17 00:00:36;;;;;;;18.90;6.68;;;11.30;99.90;;;;;;5083294;28;20134;-80
2021/10/17 00:03:02;;;;;;;16.75;6.53;;;11.30;99.90;;;;;;5095843;27;20506;-79
2021/10/17 00:05:31;;;;;;;22.20;6.88;;;11.30;99.90;;;;;;5082630;28;20052;-79
2021/10/17 00:07:57;;;;;;;22.20;8.32;;;11.30;99.90;;;;;;5131296;27;20085;-79
2021/10/17 00:10:29;;;;;;;15.15;6.95;;;11.30;99.90;;;;;;5125403;27;20516;-79
2021/10/17 00:12:56;;;;;;;;;;;11.30;99.90;;;;;;5098762;27;20047;-79
2021/10/17 00:15:23;;;;;;;23.52;7.63;;;11.30;99.90;;;;;;5114541;27;19919;-79
2021/10/17 00:17:50;;;;;;;15.63;7.15;;;11.30;99.90;;;;;;5083584;28;20083;-79
2021/10/17 00:20:18;;;;;;;19.80;7.75;;;11.30;99.90;;;;;;5093505;28;20044;-79
2021/10/17 00:22:45;;;;;;;18.08;7.40;;;11.30;99.90;;;;;;5093814;28;20048;-79
2021/10/17 00:25:12;;;;;;;22.50;8.10;;;11.30;99.90;;;;;;5110336;28;20082;-80
2021/10/17 00:27:39;;;;;;;20.10;8.35;;;11.30;99.90;;;;;;5082790;28;20058;-79
2021/10/17 00:30:07;;;;;;;20.88;8.48;;;11.30;99.90;;;;;;5076430;28;20104;-79
2021/10/17 00:32:33;;;;;;;23.33;9.02;;;11.30;99.90;;;;;;5110661;28;20048;-79
2021/10/17 00:35:01;;;;;;;18.35;8.48;;;11.30;99.90;;;;;;5127097;27;20043;-79
2021/10/17 00:37:28;;;;;;;29.17;9.98;;;11.30;99.90;;;;;;5126862;27;20142;-79
2021/10/17 00:39:54;;;;;;;17.92;8.00;;;11.30;99.90;;;;;;5109148;27;20521;-79
2021/10/17 00:42:19;;;;;;;19.95;7.80;;;11.30;99.90;;;;;;5087768;28;20044;-79
2021/10/17 00:44:45;;;;;;;20.58;8.18;;;11.30;99.90;;;;;;5091612;27;20101;-79
2021/10/17 00:47:11;;;;;;;20.65;9.95;;;11.20;99.90;;;;;;5089277;28;20044;-79
2021/10/17 00:49:37;;;;;;;22.90;9.05;;;11.20;99.90;;;;;;5079782;28;20484;-79
2021/10/17 00:52:03;;;;;;;20.55;9.90;;;11.10;99.90;;;;;;5127195;27;20047;-79
2021/10/17 00:54:29;;;;;;;23.95;9.75;;;11.10;99.90;;;;;;5126693;27;20052;-79
2021/10/17 00:56:55;;;;;;;19.38;9.32;;;11.10;99.90;;;;;;5093551;28;20054;-79
2021/10/17 00:59:20;;;;;;;20.52;10.27;;;11.10;99.90;;;;;;5109680;28;20486;-79
2021/10/17 01:01:46;;;;;;;24.13;10.95;;;11.00;99.90;;;;;;5093343;28;20036;-79
2021/10/17 01:04:12;;;;;;;20.52;9.68;;;11.00;99.90;;;;;;5109329;28;20044;-79
2021/10/17 01:06:38;;;;;;;22.85;10.63;;;11.00;99.90;;;;;;5089322;28;20036;-79
2021/10/17 01:09:05;;;;;;;19.67;10.55;;;11.00;99.90;;;;;;5091857;28;20136;-79
2021/10/17 01:11:45;;;;;;;23.63;11.00;;;11.00;99.90;;;;;;5092599;28;20122;-79
2021/10/17 01:14:19;;;;;;;21.13;11.10;;;11.00;99.90;;;;;;5092268;28;20512;-79
2021/10/17 01:16:45;;;;;;;24.60;11.65;;;11.00;99.90;;;;;;5110254;28;20051;-79
2021/10/17 01:19:11;;;;;;;27.20;11.52;;;11.00;99.90;;;;;;5093021;28;20043;-79
2021/10/17 01:21:38;;;;;;;23.55;11.40;;;11.00;99.90;;;;;;5075702;28;20118;-81
2021/10/17 01:24:06;;;;;;;31.50;13.57;;;11.00;99.90;;;;;;5102249;27;20031;-82
2021/10/17 01:26:33;;;;;;;21.75;11.25;;;11.00;99.90;;;;;;5105378;28;20482;-81
2021/10/17 01:28:59;;;;;;;30.52;13.43;;;11.00;99.90;;;;;;5106519;27;20076;-81
2021/10/17 01:31:36;;;;;;;25.17;12.48;;;11.00;99.90;;;;;;5108594;28;20050;-81
2021/10/17 01:34:05;;;;;;;25.60;13.10;;;11.00;99.90;;;;;;5098842;28;20525;-81
2021/10/17 01:36:32;;;;;;;32.10;13.40;;;11.00;99.90;;;;;;5098193;27;20058;-81
2021/10/17 01:38:57;;;;;;;28.02;13.38;;;10.90;99.90;;;;;;5075978;28;20303;-81
2021/10/17 01:41:23;;;;;;;25.05;13.13;;;11.00;99.90;;;;;;5109312;28;20487;-81
2021/10/17 01:43:49;;;;;;;24.70;13.27;;;11.00;99.90;;;;;;5091181;27;20436;-81
2021/10/17 01:46:15;;;;;;;24.98;12.77;;;11.00;99.90;;;;;;5074177;28;20170;-81
2021/10/17 01:48:41;;;;;;;27.45;12.38;;;11.00;99.90;;;;;;5109482;28;20031;-82
2021/10/17 01:51:07;;;;;;;26.20;12.80;;;11.00;99.90;;;;;;5118696;27;20036;-81
2021/10/17 01:53:33;;;;;;;32.28;14.82;;;11.00;99.90;;;;;;5091742;28;20452;-81
2021/10/17 01:56:00;;;;;;;25.58;13.52;;;11.00;99.90;;;;;;5074448;28;20063;-81
2021/10/17 01:58:26;;;;;;;31.20;14.30;;;11.00;99.90;;;;;;5109369;28;20111;-81
2021/10/17 02:00:53;;;;;;;26.10;13.80;;;11.00;99.90;;;;;;5091778;28;20556;-81
2021/10/17 02:03:19;;;;;;;26.42;12.40;;;11.00;99.90;;;;;;5090980;28;20040;-81
2021/10/17 02:05:44;;;;;;;22.63;12.32;;;11.00;99.90;;;;;;5091300;28;20107;-81
2021/10/17 02:08:11;;;;;;;27.20;13.35;;;11.00;99.90;;;;;;5091784;28;20035;-81
2021/10/17 02:10:37;;;;;;;24.08;13.63;;;11.00;99.90;;;;;;5092462;28;20043;-82
2021/10/17 02:13:03;;;;;;;27.88;12.98;;;11.00;99.90;;;;;;5125019;27;20391;-81
2021/10/17 02:15:28;;;;;;;31.48;15.05;;;11.00;99.90;;;;;;5126176;27;20075;-81
2021/10/17 02:17:54;;;;;;;29.58;14.15;;;11.00;99.90;;;;;;5125102;27;20140;-81
2021/10/17 02:20:20;;;;;;;32.42;16.60;;;11.00;99.90;;;;;;5090297;28;20042;-82
2021/10/17 02:22:46;;;;;;;33.67;17.58;;;11.00;99.90;;;;;;5071722;28;20040;-81
2021/10/17 02:25:12;;;;;;;28.73;16.30;;;10.90;99.90;;;;;;5091594;28;20480;-81
2021/10/17 02:27:38;;;;;;;27.90;16.10;;;10.90;99.90;;;;;;5090921;28;20054;-82
2021/10/17 02:30:06;;;;;;;29.35;16.85;;;10.90;99.90;;;;;;5090993;28;20032;-81
2021/10/17 02:32:34;;;;;;;31.45;17.05;;;10.90;99.90;;;;;;5134645;27;20070;-81
2021/10/17 02:35:01;;;;;;;29.50;15.75;;;10.80;99.90;;;;;;5073223;28;20380;-81
2021/10/17 02:37:30;;;;;;;28.75;16.05;;;10.80;99.90;;;;;;5124136;27;20132;-81
2021/10/17 02:40:00;;;;;;;28.77;15.50;;;10.80;99.90;;;;;;5138843;27;20104;-81
2021/10/17 02:42:26;;;;;;;25.20;15.13;;;10.80;99.90;;;;;;5092204;28;20047;-81
2021/10/17 02:44:51;;;;;;;26.15;13.88;;;10.80;99.90;;;;;;5090548;28;20032;-81
2021/10/17 02:47:17;;;;;;;24.80;13.95;;;10.80;99.90;;;;;;5091326;27;20053;-81
2021/10/17 02:49:43;;;;;;;26.60;13.70;;;10.80;99.90;;;;;;5090414;28;20486;-82
2021/10/17 02:52:09;;;;;;;23.83;13.10;;;10.70;99.90;;;;;;5091204;28;20482;-81
2021/10/17 02:54:35;;;;;;;21.98;13.10;;;10.80;99.90;;;;;;5080723;27;20037;-81
2021/10/17 02:57:01;;;;;;;23.77;11.98;;;10.70;99.90;;;;;;5101907;28;20130;-81
2021/10/17 02:59:26;;;;;;;19.73;10.55;;;10.70;99.90;;;;;;5092067;27;20057;-81
2021/10/17 03:01:52;;;;;;;24.33;10.70;;;10.70;99.90;;;;;;5107625;27;20535;-81
2021/10/17 03:04:18;;;;;;;20.65;10.35;;;10.60;99.90;;;;;;5126958;27;20059;-81
2021/10/17 03:06:44;;;;;;;23.65;10.07;;;10.60;99.90;;;;;;5094862;27;20047;-81
2021/10/17 03:09:10;;;;;;;18.13;9.43;;;10.60;99.90;;;;;;5109213;27;20054;-81
2021/10/17 03:11:36;;;;;;;21.02;10.07;;;10.60;99.90;;;;;;5083785;28;20075;-81
2021/10/17 03:14:06;;;;;;;21.85;10.00;;;10.50;99.90;;;;;;5101325;28;20050;-81
2021/10/17 03:16:32;;;;;;;18.52;9.02;;;10.50;99.90;;;;;;5101496;28;20054;-82
2021/10/17 03:18:58;;;;;;;24.58;10.48;;;10.60;99.90;;;;;;5100942;28;20043;-82
2021/10/17 03:21:24;;;;;;;18.63;9.88;;;10.50;99.90;;;;;;5102498;28;20043;-82
2021/10/17 03:23:50;;;;;;;18.25;10.00;;;10.50;99.90;;;;;;5097182;28;20043;-81
2021/10/17 03:26:16;;;;;;;24.30;11.93;;;10.50;99.90;;;;;;5110657;28;20050;-81
2021/10/17 03:28:41;;;;;;;19.02;9.98;;;10.50;99.90;;;;;;5092720;28;20028;-81
2021/10/17 03:31:07;;;;;;;20.45;10.02;;;10.50;99.90;;;;;;5090673;28;20035;-81
2021/10/17 03:33:34;;;;;;;18.77;9.48;;;10.50;99.90;;;;;;5108022;28;20075;-81
2021/10/17 03:36:00;;;;;;;17.50;9.93;;;10.50;99.90;;;;;;5077836;28;20039;-81
2021/10/17 03:38:26;;;;;;;20.20;9.15;;;10.50;99.90;;;;;;5100697;27;20039;-81
2021/10/17 03:40:51;;;;;;;16.58;9.25;;;10.50;99.90;;;;;;5114614;27;20079;-81
2021/10/17 03:43:17;;;;;;;18.40;9.13;;;10.50;99.90;;;;;;5098212;28;20380;-81
2021/10/17 03:45:43;;;;;;;14.23;8.20;;;10.40;99.90;;;;;;5110849;27;20530;-81
2021/10/17 03:48:08;;;;;;;16.05;9.02;;;10.50;99.90;;;;;;5085259;27;20130;-81
2021/10/17 03:50:35;;;;;;;18.27;9.45;;;10.50;99.90;;;;;;5111855;27;20039;-81
2021/10/17 03:53:01;;;;;;;19.08;8.85;;;10.50;99.90;;;;;;5095125;28;20096;-82
2021/10/17 03:55:27;;;;;;;20.85;9.35;;;10.50;99.90;;;;;;5087161;27;20089;-81
2021/10/17 03:57:53;;;;;;;18.65;8.75;;;10.50;99.90;;;;;;5130969;27;20080;-81
2021/10/17 04:00:19;;;;;;;19.33;9.52;;;10.50;99.90;;;;;;5097660;27;20070;-81
2021/10/17 04:02:45;;;;;;;24.30;9.68;;;10.50;99.90;;;;;;5094378;28;20051;-82
2021/10/17 04:05:11;;;;;;;18.38;9.23;;;10.50;99.90;;;;;;5115991;27;20138;-81
2021/10/17 04:07:37;;;;;;;18.95;9.45;;;10.40;99.90;;;;;;5098097;27;20047;-81
2021/10/17 04:10:04;;;;;;;16.80;8.73;;;10.50;99.90;;;;;;5125983;27;20078;-82
2021/10/17 04:12:31;;;;;;;22.40;9.65;;;10.40;99.90;;;;;;5099653;28;20100;-81
2021/10/17 04:14:56;;;;;;;25.88;9.88;;;10.50;99.90;;;;;;5110086;28;20039;-81
2021/10/17 04:17:23;;;;;;;16.58;9.55;;;10.50;99.90;;;;;;5127865;27;20541;-81
2021/10/17 04:19:50;;;;;;;17.65;9.38;;;10.50;99.90;;;;;;5128378;27;20040;-81
2021/10/17 04:22:16;;;;;;;15.52;9.05;;;10.50;99.90;;;;;;5108213;27;20047;-82
2021/10/17 04:24:42;;;;;;;20.42;8.85;;;10.50;99.90;;;;;;5090641;28;20086;-81
2021/10/17 04:27:09;;;;;;;19.58;9.88;;;10.50;99.90;;;;;;5099463;28;20075;-81
2021/10/17 04:29:35;;;;;;;19.02;8.57;;;10.50;99.90;;;;;;5104891;28;20490;-81
2021/10/17 04:32:05;;;;;;;20.88;9.07;;;10.50;99.90;;;;;;5127223;27;20495;-81
2021/10/17 04:34:32;;;;;;;20.95;9.70;;;10.50;99.90;;;;;;5127952;27;20043;-81
2021/10/17 04:36:58;;;;;;;18.70;8.95;;;10.50;99.90;;;;;;5093290;28;20047;-81
2021/10/17 04:39:24;;;;;;;17.20;8.93;;;10.50;99.90;;;;;;5118985;27;20518;-81
2021/10/17 04:41:50;;;;;;;23.80;9.45;;;10.50;99.90;;;;;;5068968;27;20122;-82
2021/10/17 04:44:16;;;;;;;17.02;9.10;;;10.50;99.90;;;;;;5111418;28;20146;-82
2021/10/17 04:46:41;;;;;;;18.65;8.82;;;10.50;99.90;;;;;;5070221;28;20036;-82
2021/10/17 04:49:07;;;;;;;24.08;9.65;;;10.50;99.90;;;;;;5110425;28;20083;-81
2021/10/17 04:51:33;;;;;;;20.55;9.80;;;10.50;99.90;;;;;;5092689;28;20044;-81
2021/10/17 04:53:59;;;;;;;17.65;8.90;;;10.50;99.90;;;;;;5110518;28;20043;-81
2021/10/17 04:56:24;;;;;;;15.52;8.52;;;10.50;99.90;;;;;;5058862;28;20048;-81
2021/10/17 04:58:51;;;;;;;19.58;9.02;;;10.50;99.90;;;;;;5127566;27;20139;-81
2021/10/17 05:01:16;;;;;;;16.60;9.02;;;10.50;99.90;;;;;;5126938;27;20044;-81
2021/10/17 05:03:42;;;;;;;17.30;9.13;;;10.60;99.90;;;;;;5127436;27;20097;-81
2021/10/17 05:06:10;;;;;;;21.33;9.65;;;10.60;99.90;;;;;;5110168;28;20509;-81
2021/10/17 05:08:36;;;;;;;16.55;9.70;;;10.60;99.90;;;;;;5108520;28;20143;-82
2021/10/17 05:11:02;;;;;;;19.00;8.82;;;10.50;99.90;;;;;;5126821;27;20122;-81
2021/10/17 05:13:28;;;;;;;23.80;9.30;;;10.60;99.90;;;;;;5125964;27;20040;-81
2021/10/17 05:15:53;;;;;;;15.02;8.43;;;10.50;99.90;;;;;;5109829;28;20047;-81
2021/10/17 05:18:19;;;;;;;19.75;9.68;;;10.50;99.90;;;;;;5126158;27;20403;-81
2021/10/17 05:20:45;;;;;;;20.48;9.82;;;10.50;99.90;;;;;;5128127;27;20529;-81
2021/10/17 05:23:13;;;;;;;21.98;9.05;;;10.50;99.90;;;;;;5088887;28;20036;-82
2021/10/17 05:25:40;;;;;;;21.38;9.52;;;10.50;99.90;;;;;;5106908;28;20491;-82
2021/10/17 05:28:06;;;;;;;18.48;9.57;;;10.50;99.90;;;;;;5106754;28;20119;-82
2021/10/17 05:30:33;;;;;;;25.45;9.20;;;10.60;99.90;;;;;;5110239;27;20047;-81
2021/10/17 05:33:00;;;;;;;16.52;9.05;;;10.50;99.90;;;;;;5126430;27;20043;-81
2021/10/17 05:35:26;;;;;;;19.33;9.05;;;10.50;99.90;;;;;;5093046;28;20051;-81
2021/10/17 05:37:52;;;;;;;15.55;9.10;;;10.50;99.90;;;;;;5113307;27;20035;-82
2021/10/17 05:40:18;;;;;;;21.25;8.43;;;10.50;99.90;;;;;;5095923;27;20042;-82
2021/10/17 05:42:44;;;;;;;20.58;9.60;;;10.50;99.90;;;;;;5081865;27;20126;-81
2021/10/17 05:45:10;;;;;;;20.92;10.23;;;10.50;99.90;;;;;;5113188;27;20035;-81
2021/10/17 05:47:36;;;;;;;16.00;9.25;;;10.50;99.90;;;;;;5098113;28;20551;-81
2021/10/17 05:50:02;;;;;;;28.48;11.57;;;10.50;99.90;;;;;;5119991;27;20134;-81
2021/10/17 05:52:28;;;;;;;15.55;8.63;;;10.50;99.90;;;;;;5074568;28;20039;-81
2021/10/17 05:54:54;;;;;;;21.67;9.85;;;10.50;99.90;;;;;;5110080;27;20039;-81
2021/10/17 05:57:20;;;;;;;15.20;9.02;;;10.50;99.90;;;;;;5109294;27;20054;-82
2021/10/17 05:59:45;;;;;;;15.15;8.55;;;10.50;99.90;;;;;;5089976;27;20054;-81
2021/10/17 06:02:11;;;;;;;21.45;9.20;;;10.50;99.90;;;;;;5107965;28;20054;-81
2021/10/17 06:04:37;;;;;;;17.20;8.77;;;10.50;99.90;;;;;;5110029;27;20089;-81
2021/10/17 06:07:03;;;;;;;18.70;8.95;;;10.40;99.90;;;;;;5064225;28;20052;-81
2021/10/17 06:09:38;;;;;;;19.77;9.40;;;10.40;99.90;;;;;;5104709;28;20044;-82
2021/10/17 06:12:05;;;;;;;21.10;9.68;;;10.40;99.90;;;;;;5116138;27;20051;-81
2021/10/17 06:14:30;;;;;;;18.77;9.27;;;10.40;99.90;;;;;;5081957;28;20220;-81
2021/10/17 06:16:56;;;;;;;17.98;9.35;;;10.40;99.90;;;;;;5091762;28;20115;-81
2021/10/17 06:19:22;;;;;;;19.15;9.40;;;10.50;99.90;;;;;;5091503;28;20613;-82
2021/10/17 06:21:49;;;;;;;20.90;9.95;;;10.50;99.90;;;;;;5108628;28;20152;-81
2021/10/17 06:24:14;;;;;;;19.75;9.93;;;10.40;99.90;;;;;;5141784;27;20050;-81
2021/10/17 06:26:41;;;;;;;17.65;9.23;;;10.40;99.90;;;;;;5125382;27;20039;-82
2021/10/17 06:29:07;;;;;;;20.48;9.15;;;10.40;99.90;;;;;;5129398;27;20406;-82
2021/10/17 06:31:33;;;;;;;16.40;9.40;;;10.40;99.90;;;;;;5143246;27;20077;-81
2021/10/17 06:33:59;;;;;;;20.20;9.77;;;10.50;99.90;;;;;;5087870;28;20529;-82
2021/10/17 06:36:25;;;;;;;20.77;9.52;;;10.50;99.90;;;;;;5107755;28;20050;-81
2021/10/17 06:38:51;;;;;;;20.35;9.70;;;10.40;99.90;;;;;;5116666;27;20044;-81
2021/10/17 06:41:16;;;;;;;22.50;10.30;;;10.40;99.90;;;;;;5074057;28;20045;-81
2021/10/17 06:43:42;;;;;;;21.00;9.93;;;10.40;99.90;;;;;;5074176;28;20050;-82
2021/10/17 06:46:08;;;;;;;19.08;9.75;;;10.40;99.90;;;;;;5107119;28;20051;-81
2021/10/17 06:48:34;;;;;;;23.38;10.70;;;10.40;99.90;;;;;;5074303;28;20512;-81
2021/10/17 06:50:59;;;;;;;16.77;10.40;;;10.40;99.90;;;;;;5074339;28;20052;-82
2021/10/17 06:53:25;;;;;;;18.67;9.60;;;10.40;99.90;;;;;;5090767;28;20131;-81
2021/10/17 06:55:51;;;;;;;20.13;9.77;;;10.50;99.90;;;;;;5107190;28;20032;-81
2021/10/17 06:58:16;;;;;;;20.88;10.57;;;10.50;99.90;;;;;;5124758;27;20118;-81
2021/10/17 07:00:42;;;;;;;18.30;9.93;;;10.50;99.90;;;;;;5124401;27;20028;-81
2021/10/17 07:03:08;;;;;;;16.85;9.95;;;10.50;99.90;;;;;;5087551;28;20576;-81
2021/10/17 07:05:33;;;;;;;21.58;10.02;;;10.50;99.90;;;;;;5094405;28;20054;-81
2021/10/17 07:07:59;;;;;;;19.40;11.15;;;10.50;99.90;;;;;;5055961;28;20097;-81
2021/10/17 07:10:25;;;;;;;21.55;10.13;;;10.50;99.90;;;;;;5089649;28;20521;-82
2021/10/17 07:12:51;;;;;;;23.25;10.77;;;10.50;99.90;;;;;;5102339;28;20031;-82
2021/10/17 07:15:16;;;;;;;20.42;10.82;;;10.60;99.90;;;;;;5089595;28;20047;-82
2021/10/17 07:17:42;;;;;;;24.38;11.23;;;10.60;99.90;;;;;;5107128;28;20044;-82
2021/10/17 07:20:08;;;;;;;24.58;10.60;;;10.60;99.90;;;;;;5091789;28;20156;-85
2021/10/17 07:22:35;;;;;;;20.75;11.27;;;10.60;99.90;;;;;;5079690;28;20048;-84
2021/10/17 07:25:01;;;;;;;25.08;12.32;;;10.60;99.90;;;;;;5089862;28;20083;-84
2021/10/17 07:27:26;;;;;;;22.50;10.65;;;10.60;99.90;;;;;;5124321;27;20094;-84
2021/10/17 07:29:52;;;;;;;22.63;10.65;;;10.70;99.90;;;;;;5090615;28;20036;-84
2021/10/17 07:32:18;;;;;;;20.85;11.13;;;10.70;99.90;;;;;;5142154;27;20044;-84
2021/10/17 07:34:44;;;;;;;24.58;11.80;;;10.70;99.90;;;;;;5107065;28;20067;-84
2021/10/17 07:37:09;;;;;;;17.73;10.35;;;10.70;99.90;;;;;;5116480;28;20039;-84
2021/10/17 07:39:35;;;;;;;26.92;11.82;;;10.80;99.90;;;;;;5059756;28;20383;-81
2021/10/17 07:42:02;;;;;;;30.65;12.02;;;10.80;99.90;;;;;;5107146;28;20122;-81
2021/10/17 07:44:27;;;;;;;25.40;11.43;;;10.80;99.90;;;;;;5073394;28;20039;-81
2021/10/17 07:46:53;;;;;;;22.90;11.40;;;10.80;99.90;;;;;;5081991;28;20045;-84
2021/10/17 07:49:19;;;;;;;22.55;12.00;;;10.90;99.90;;;;;;5089356;28;20502;-90
2021/10/17 07:51:44;;;;;;;18.02;11.10;;;10.90;99.90;;;;;;5069518;28;20067;-87
2021/10/17 07:54:10;;;;;;;21.45;11.75;;;10.90;99.90;;;;;;5105134;28;20065;-84
2021/10/17 07:56:36;;;;;;;23.88;11.35;;;10.90;99.90;;;;;;5071593;28;20380;-89
2021/10/17 07:59:03;;;;;;;22.40;11.23;;;11.00;99.90;;;;;;5107765;28;20075;-88
2021/10/17 08:01:29;;;;;;;25.48;11.18;;;11.00;99.90;;;;;;5106798;28;20043;-86
2021/10/17 08:03:54;;;;;;;29.33;11.52;;;11.00;99.90;;;;;;5064084;28;20280;-86
2021/10/17 08:06:20;;;;;;;26.88;11.70;;;11.00;99.90;;;;;;5055848;28;20475;-83
2021/10/17 08:08:46;;;;;;;27.40;12.13;;;11.00;99.90;;;;;;5098785;28;20046;-84
2021/10/17 08:11:12;;;;;;;25.92;11.45;;;11.00;99.90;;;;;;5089218;28;20534;-85
2021/10/17 08:13:38;;;;;;;22.05;11.05;;;11.00;99.90;;;;;;5089231;28;20074;-83
2021/10/17 08:16:04;;;;;;;23.33;10.57;;;11.00;99.90;;;;;;5088639;28;20061;-83
2021/10/17 08:18:30;;;;;;;22.25;11.88;;;11.00;99.90;;;;;;5108858;28;20514;-83
2021/10/17 08:20:55;;;;;;;22.00;10.63;;;11.00;99.90;;;;;;5097612;28;20024;-83
2021/10/17 08:23:21;;;;;;;24.17;10.57;;;11.00;99.90;;;;;;5115324;27;20150;-82
2021/10/17 08:25:47;;;;;;;27.63;11.32;;;11.00;99.90;;;;;;5102069;28;20039;-82
2021/10/17 08:28:14;;;;;;;24.38;10.52;;;11.00;99.90;;;;;;5098582;27;20079;-82
2021/10/17 08:30:40;;;;;;;21.70;11.10;;;11.00;99.90;;;;;;5103319;28;20545;-82
2021/10/17 08:33:06;;;;;;;26.33;11.20;;;11.00;99.90;;;;;;5111854;27;20121;-82
2021/10/17 08:35:32;;;;;;;20.65;10.02;;;11.00;99.90;;;;;;5133832;27;20082;-82
2021/10/17 08:37:57;;;;;;;24.50;11.15;;;11.00;99.90;;;;;;5075978;28;20043;-82
2021/10/17 08:40:23;;;;;;;20.30;11.38;;;11.10;99.90;;;;;;5107252;28;20047;-82
2021/10/17 08:42:49;;;;;;;21.48;9.82;;;11.10;99.90;;;;;;5076404;28;20086;-82
2021/10/17 08:45:15;;;;;;;25.15;10.27;;;11.10;99.90;;;;;;5124994;27;20043;-82
2021/10/17 08:47:41;;;;;;;23.13;10.15;;;11.10;99.90;;;;;;5105631;28;20471;-82
2021/10/17 08:50:09;;;;;;;22.50;10.40;;;11.20;99.90;;;;;;5095376;28;20594;-82
2021/10/17 08:52:35;;;;;;;18.05;10.40;;;11.20;99.90;;;;;;5124238;27;20121;-82
2021/10/17 08:55:02;;;;;;;23.48;10.80;;;11.20;99.90;;;;;;5105648;28;20131;-82
2021/10/17 08:57:28;;;;;;;23.88;10.98;;;11.30;99.90;;;;;;5079582;28;20470;-82
2021/10/17 08:59:56;;;;;;;23.90;11.70;;;11.30;99.90;;;;;;5106609;28;20105;-83
2021/10/17 09:02:25;;;;;;;29.05;11.20;;;11.40;99.90;;;;;;5094524;28;20101;-82
2021/10/17 09:05:08;;;;;;;23.67;10.25;;;11.40;99.90;;;;;;5103091;27;20055;-83
2021/10/17 09:07:34;;;;;;;24.02;10.82;;;11.50;99.90;;;;;;5106166;28;20049;-82
2021/10/17 09:10:09;;;;;;;23.65;9.80;;;11.60;99.90;;;;;;5103471;27;20077;-83
2021/10/17 09:12:35;;;;;;;23.60;10.50;;;11.60;99.90;;;;;;5100829;28;20047;-82
2021/10/17 09:15:20;;;;;;;24.98;10.95;;;11.70;99.90;;;;;;5104728;27;20043;-82
2021/10/17 09:18:11;;;;;;;17.88;10.00;;;11.80;99.90;;;;;;5125939;27;20047;-83
2021/10/17 09:20:50;;;;;;;23.98;10.35;;;11.80;99.90;;;;;;5106327;27;20155;-82
2021/10/17 09:23:22;;;;;;;22.75;9.40;;;11.90;99.90;;;;;;5086233;28;20489;-82
2021/10/17 09:25:50;;;;;;;23.70;10.57;;;11.90;99.90;;;;;;5110313;27;20039;-83
2021/10/17 09:28:16;;;;;;;24.00;10.07;;;12.00;99.90;;;;;;5092030;28;20161;-83
2021/10/17 09:30:42;;;;;;;20.67;9.43;;;12.00;99.90;;;;;;5103044;28;20506;-82
2021/10/17 09:33:13;;;;;;;17.77;9.02;;;12.00;99.90;;;;;;5121749;27;20398;-83
2021/10/17 09:35:39;;;;;;;24.45;9.77;;;12.10;99.90;;;;;;5123222;27;20096;-83
2021/10/17 09:38:05;;;;;;;18.52;9.52;;;12.00;99.90;;;;;;5075145;28;20501;-83
2021/10/17 09:40:33;;;;;;;19.10;9.10;;;12.00;99.90;;;;;;5102703;28;20130;-83
2021/10/17 09:43:11;;;;;;;22.40;8.77;;;12.00;99.90;;;;;;5080907;28;20483;-83
2021/10/17 09:45:37;;;;;;;24.25;9.48;;;12.00;99.90;;;;;;5115673;27;20047;-83
2021/10/17 09:48:04;;;;;;;24.92;10.77;;;12.00;99.90;;;;;;5093817;28;20085;-82
2021/10/17 09:50:30;;;;;;;19.85;8.60;;;12.00;99.90;;;;;;5097745;27;20118;-83
2021/10/17 09:52:56;;;;;;;20.45;9.20;;;12.00;99.90;;;;;;5094293;28;20043;-83
2021/10/17 09:55:23;;;;;;;23.00;9.73;;;11.90;99.90;;;;;;5123682;27;20043;-83
2021/10/17 09:57:50;;;;;;;17.67;9.00;;;11.90;99.90;;;;;;5104138;28;20024;-83
2021/10/17 10:00:16;;;;;;;20.00;9.20;;;11.90;99.90;;;;;;5108968;27;20051;-83
2021/10/17 10:02:50;;;;;;;16.50;8.85;;;12.00;99.90;;;;;;5098276;28;20044;-83
2021/10/17 10:05:22;;;;;;;23.17;9.38;;;11.90;99.90;;;;;;5114291;27;20116;-82
2021/10/17 10:07:50;;;;;;;25.35;10.18;;;11.90;99.90;;;;;;5107629;28;20040;-83
2021/10/17 10:10:18;;;;;;;23.70;9.20;;;11.90;99.90;;;;;;5091887;28;20043;-83
2021/10/17 10:12:45;;;;;;;23.85;9.65;;;12.00;99.90;;;;;;5124677;27;20052;-83
2021/10/17 10:15:11;;;;;;;17.95;9.05;;;12.00;99.90;;;;;;5100147;28;20043;-83
2021/10/17 10:17:41;;;;;;;23.70;9.80;;;12.00;99.90;;;;;;5125190;27;20043;-83
2021/10/17 10:20:08;;;;;;;24.65;9.55;;;11.90;99.90;;;;;;5124992;27;20048;-83
2021/10/17 10:22:34;;;;;;;22.55;9.95;;;12.00;99.90;;;;;;5090078;28;20040;-83
2021/10/17 10:25:00;;;;;;;19.60;9.80;;;12.00;99.90;;;;;;5108502;28;20051;-84
2021/10/17 10:27:28;;;;;;;27.35;10.50;;;11.90;99.90;;;;;;5090724;28;20491;-84
2021/10/17 10:30:21;;;;;;;23.08;9.73;;;11.90;99.90;;;;;;5123646;27;20416;-83
2021/10/17 10:33:10;;;;;;;15.77;9.00;;;11.90;99.90;;;;;;5066662;28;20047;-83
2021/10/17 10:35:57;;;;;;;26.55;10.52;;;11.90;99.90;;;;;;5080719;28;20044;-82
2021/10/17 10:38:51;;;;;;;22.73;9.23;;;11.90;99.90;;;;;;5111171;27;20050;-83
2021/10/17 10:41:18;;;;;;;16.42;8.73;;;11.90;99.90;;;;;;5107380;28;20035;-84
2021/10/17 10:43:44;;;;;;;25.85;9.88;;;11.90;99.90;;;;;;5105913;27;20071;-82
2021/10/17 10:46:10;;;;;;;25.35;10.35;;;12.00;99.90;;;;;;5107478;28;20082;-82
2021/10/17 10:48:47;;;;;;;19.23;9.93;;;12.00;99.90;;;;;;5106436;27;20478;-83
2021/10/17 10:51:37;;;;;;;22.75;9.80;;;12.00;99.90;;;;;;5074825;28;20572;-81
2021/10/17 10:54:03;;;;;;;21.85;9.85;;;12.00;99.90;;;;;;5127738;27;20050;-82
2021/10/17 10:56:38;;;;;;;24.13;10.50;;;12.00;99.90;;;;;;5091885;28;20119;-82
2021/10/17 10:59:04;;;;;;;26.00;10.32;;;12.00;99.90;;;;;;5119736;27;20062;-84
2021/10/17 11:01:55;;;;;;;23.10;11.02;;;12.10;99.90;;;;;;5119489;27;20043;-85
2021/10/17 11:04:44;;;;;;;26.42;11.10;;;12.10;99.90;;;;;;5087190;28;20047;-85
2021/10/17 11:07:32;;;;;;;17.60;10.43;;;12.10;99.90;;;;;;5090234;28;20047;-84
2021/10/17 11:10:27;;;;;;;25.48;10.48;;;12.20;99.90;;;;;;5104633;28;20040;-86
2021/10/17 11:12:57;;;;;;;21.60;10.85;;;12.20;99.90;;;;;;5068945;28;20126;-85
2021/10/17 11:15:29;;;;;;;21.08;10.32;;;12.30;99.90;;;;;;5090341;28;20054;-85
2021/10/17 11:17:57;;;;;;;17.40;11.20;;;12.30;99.90;;;;;;5110694;27;20517;-85
2021/10/17 11:20:25;;;;;;;19.77;9.73;;;12.40;99.90;;;;;;5116311;28;20086;-85
2021/10/17 11:22:51;;;;;;;23.38;9.98;;;12.40;99.90;;;;;;5090986;28;20071;-84
2021/10/17 11:25:22;;;;;;;20.55;10.27;;;12.50;99.90;;;;;;5090042;28;20043;-84
2021/10/17 11:27:49;;;;;;;19.52;9.43;;;12.50;99.90;;;;;;5089569;28;20043;-83
2021/10/17 11:30:24;;;;;;;20.00;10.07;;;12.60;99.90;;;;;;5090540;28;20127;-83
2021/10/17 11:32:50;;;;;;;18.45;10.27;;;12.60;99.90;;;;;;5073175;28;20054;-83
2021/10/17 11:35:16;;;;;;;18.25;8.80;;;12.70;99.90;;;;;;5103230;28;20047;-83
2021/10/17 11:37:51;;;;;;;20.45;9.13;;;12.70;99.90;;;;;;5105432;28;20045;-83
2021/10/17 11:40:17;;;;;;;20.40;9.25;;;12.80;99.90;;;;;;5106108;28;20100;-83
2021/10/17 11:42:46;;;;;;;23.45;9.55;;;12.80;99.90;;;;;;5115461;28;20494;-83
2021/10/17 11:45:26;;;;;;;22.25;8.68;;;12.90;99.90;;;;;;5108737;28;20456;-83
2021/10/17 11:47:54;;;;;;;18.00;9.05;;;13.00;99.90;;;;;;5106062;28;20043;-82
2021/10/17 11:50:21;;;;;;;14.50;8.93;;;13.00;99.90;;;;;;5124314;28;20067;-83
2021/10/17 11:52:58;;;;;;;22.08;8.98;;;13.00;99.90;;;;;;5110354;28;20050;-83
2021/10/17 11:55:34;;;;;;;19.58;10.07;;;13.00;99.90;;;;;;5109389;28;20083;-83
2021/10/17 11:58:01;;;;;;;18.25;8.73;;;13.10;99.90;;;;;;5110831;28;20039;-85
2021/10/17 12:00:30;;;;;;;18.23;8.50;;;13.10;99.90;;;;;;5115177;27;20075;-93
2021/10/17 12:02:56;;;;;;;18.38;8.77;;;13.10;99.90;;;;;;5095347;28;20036;-86
2021/10/17 12:05:24;;;;;;;15.35;8.43;;;13.10;99.90;;;;;;5110021;27;20061;-93
2021/10/17 12:07:53;;;;;;;18.40;9.15;;;13.20;99.90;;;;;;5092421;28;20039;-91
2021/10/17 12:10:19;;;;;;;16.73;7.63;;;13.20;99.90;;;;;;5076412;28;20032;-90
2021/10/17 12:12:45;;;;;;;17.70;8.00;;;13.20;99.90;;;;;;5076332;28;20032;-87
2021/10/17 12:15:13;;;;;;;15.80;7.85;;;13.20;99.90;;;;;;5060384;28;20039;-92
2021/10/17 12:17:39;;;;;;;14.05;8.30;;;13.20;99.90;;;;;;5104941;28;20039;-87
2021/10/17 12:20:14;;;;;;;16.73;8.07;;;13.20;99.90;;;;;;5083847;27;20050;-87
2021/10/17 12:22:45;;;;;;;12.60;7.40;;;13.20;99.90;;;;;;5105943;28;20038;-83
2021/10/17 12:25:11;;;;;;;17.08;6.93;;;13.20;99.90;;;;;;5072443;28;20434;-83
2021/10/17 12:27:41;;;;;;;19.60;6.70;;;13.20;99.90;;;;;;5056346;28;20043;-83
2021/10/17 12:30:12;;;;;;;15.80;7.53;;;13.30;99.90;;;;;;5109764;28;20040;-83
2021/10/17 12:32:52;;;;;;;15.30;7.68;;;13.20;99.90;;;;;;5109929;28;20051;-83
2021/10/17 12:35:38;;;;;;;16.35;6.95;;;13.20;99.90;;;;;;5121364;27;20039;-83